Time;durP1;ratioP1;P1;durP2;ratioP2;P2;SDS_P1;SDS_P2;PMS_P1;PMS_P2;Temp;Humidity;BMP_temperature;BMP_pressure;BME280_temperature;BME280_humidity;BME280_pressure;Samples;Min_cycle;Max_cycle;Signal;HPM_P1;HPM_P2
2021/03/13 07:12:28;;;;;;;15.77;3.45;;;8.60;99.90;;;;;;5041507;27;1888842;-91
2021/03/13 07:14:57;;;;;;;21.90;3.40;;;8.30;99.90;;;;;;5082220;28;20131;-89
2021/03/13 07:17:23;;;;;;;16.30;2.97;;;8.30;99.90;;;;;;5090871;28;20401;-91
2021/03/13 07:19:52;;;;;;;18.90;4.75;;;8.30;99.90;;;;;;5087232;28;20040;-90
2021/03/13 07:22:21;;;;;;;23.42;6.18;;;8.30;99.90;;;;;;5100569;28;20401;-91
2021/03/13 07:24:52;;;;;;;21.92;3.33;;;8.30;99.90;;;;;;5095088;28;20040;-89
2021/03/13 07:27:22;;;;;;;15.38;4.00;;;8.40;99.90;;;;;;5074346;28;20039;-89
2021/03/13 07:29:50;;;;;;;23.25;4.68;;;8.50;99.90;;;;;;5082614;28;20063;-89
2021/03/13 07:32:20;;;;;;;31.90;4.88;;;8.50;99.90;;;;;;5071802;28;20044;-89
2021/03/13 07:34:47;;;;;;;26.20;3.85;;;8.40;99.90;;;;;;5126216;27;20035;-88
2021/03/13 07:37:17;;;;;;;20.25;4.45;;;8.50;99.90;;;;;;5117175;27;20176;-88
2021/03/13 07:39:50;;;;;;;26.55;4.50;;;8.50;99.90;;;;;;5097996;28;20115;-89
2021/03/13 07:42:20;;;;;;;21.85;5.25;;;8.50;99.90;;;;;;5079818;28;20047;-90
2021/03/13 07:44:47;;;;;;;31.85;4.00;;;8.30;99.90;;;;;;5105967;28;20455;-89
2021/03/13 07:47:16;;;;;;;32.08;5.30;;;8.20;99.90;;;;;;5108397;28;20435;-90
2021/03/13 07:49:42;;;;;;;25.63;5.50;;;8.20;99.90;;;;;;5066980;28;20796;-89
2021/03/13 07:52:10;;;;;;;34.00;5.80;;;8.00;99.90;;;;;;5095724;27;20072;-90
2021/03/13 07:54:41;;;;;;;21.92;5.03;;;8.10;99.90;;;;;;5082743;28;20043;-89
2021/03/13 07:57:10;;;;;;;25.00;4.80;;;8.10;99.90;;;;;;5091972;28;20130;-91
2021/03/13 07:59:48;;;;;;;25.50;4.82;;;8.10;99.90;;;;;;5087223;28;20055;-92
2021/03/13 08:02:29;;;;;;;30.25;6.43;;;8.10;99.90;;;;;;5085929;28;20411;-91
2021/03/13 08:05:15;;;;;;;33.53;5.07;;;8.00;99.90;;;;;;5102051;28;20328;-90
2021/03/13 08:08:13;;;;;;;29.50;4.72;;;8.00;99.90;;;;;;5099965;28;20051;-91
2021/03/13 08:10:40;;;;;;;34.67;7.05;;;8.00;99.90;;;;;;5052091;28;20056;-90
2021/03/13 08:13:07;;;;;;;22.42;4.35;;;8.00;99.90;;;;;;5080116;28;20098;-91
2021/03/13 08:15:34;;;;;;;24.73;4.43;;;8.10;99.90;;;;;;5099990;28;20043;-89
2021/03/13 08:18:01;;;;;;;31.65;5.43;;;8.30;99.90;;;;;;5093686;28;20424;-90
2021/03/13 08:20:31;;;;;;;32.17;6.20;;;8.20;99.90;;;;;;5098683;28;20556;-90
2021/03/13 08:23:12;;;;;;;25.77;5.60;;;8.60;99.90;;;;;;5077459;28;20330;-91
2021/03/13 08:25:58;;;;;;;24.63;4.85;;;8.70;99.90;;;;;;5085765;28;20043;-90
2021/03/13 08:28:48;;;;;;;24.25;4.85;;;8.70;99.90;;;;;;5075474;28;20075;-89
2021/03/13 08:31:23;;;;;;;20.20;4.55;;;8.60;99.90;;;;;;5078365;28;20051;-90
2021/03/13 08:33:53;;;;;;;28.42;5.25;;;8.30;99.90;;;;;;5085989;28;20448;-91
2021/03/13 08:36:27;;;;;;;19.48;5.43;;;8.30;99.90;;;;;;5093923;28;20039;-92
2021/03/13 08:38:58;;;;;;;26.98;4.90;;;8.30;99.90;;;;;;5069686;28;20355;-91
2021/03/13 08:41:43;;;;;;;29.23;5.82;;;8.40;99.90;;;;;;5081718;28;20044;-92
2021/03/13 08:44:13;;;;;;;16.48;3.55;;;8.30;99.90;;;;;;5084609;28;20436;-93
2021/03/13 08:46:49;;;;;;;26.05;4.88;;;8.40;99.90;;;;;;5083948;28;20374;-91
2021/03/13 08:49:24;;;;;;;23.70;4.40;;;8.20;99.90;;;;;;5082686;28;20166;-91
2021/03/13 08:52:09;;;;;;;24.98;4.78;;;8.20;99.90;;;;;;5070501;28;20036;-91
2021/03/13 08:54:41;;;;;;;18.73;4.03;;;8.10;99.90;;;;;;5086663;28;20044;-89
2021/03/13 08:57:44;;;;;;;20.85;3.22;;;8.10;99.90;;;;;;5074005;28;20037;-89
2021/03/13 09:00:15;;;;;;;24.20;5.38;;;8.20;99.90;;;;;;5031800;28;20156;-90
2021/03/13 09:02:40;;;;;;;25.65;4.55;;;8.20;99.90;;;;;;5064900;28;20098;-89
2021/03/13 09:05:09;;;;;;;18.48;5.00;;;8.20;99.90;;;;;;5096560;28;20044;-90
2021/03/13 09:07:36;;;;;;;25.52;4.53;;;8.20;99.90;;;;;;5082932;28;20123;-90
2021/03/13 09:10:03;;;;;;;19.75;3.70;;;8.20;99.90;;;;;;5076659;28;20099;-90
2021/03/13 09:12:31;;;;;;;24.13;4.47;;;8.50;99.90;;;;;;5043806;28;20037;-89
2021/03/13 09:15:03;;;;;;;27.85;4.35;;;8.50;99.90;;;;;;5026892;28;20064;-89
2021/03/13 09:17:30;;;;;;;;;;;8.60;99.90;;;;;;5043491;28;20478;-89
2021/03/13 09:20:06;;;;;;;19.17;4.13;;;8.40;99.90;;;;;;5033841;28;20324;-91
2021/03/13 09:22:32;;;;;;;20.40;3.55;;;8.20;99.90;;;;;;5044394;28;20044;-90
2021/03/13 09:25:00;;;;;;;16.48;3.83;;;8.30;99.90;;;;;;5049483;28;20064;-89
2021/03/13 09:27:29;;;;;;;17.90;3.72;;;8.10;99.90;;;;;;5063174;28;20044;-89
2021/03/13 09:29:56;;;;;;;22.23;4.15;;;8.10;99.90;;;;;;5064046;28;20040;-90
2021/03/13 09:32:24;;;;;;;18.02;4.35;;;8.20;99.90;;;;;;5067797;28;20056;-88
2021/03/13 09:34:52;;;;;;;23.00;4.15;;;8.00;99.90;;;;;;5067229;28;20060;-90
2021/03/13 09:37:30;;;;;;;19.15;4.25;;;8.00;99.90;;;;;;5050292;28;20041;-89
2021/03/13 09:40:02;;;;;;;21.42;2.75;;;7.90;99.90;;;;;;5057002;28;20505;-91
2021/03/13 09:42:29;;;;;;;21.05;3.88;;;8.20;99.90;;;;;;5052730;28;20387;-89
2021/03/13 09:45:03;;;;;;;19.17;3.83;;;8.30;99.90;;;;;;5043087;28;20044;-89
2021/03/13 09:47:30;;;;;;;18.48;4.57;;;8.50;99.90;;;;;;5064890;28;20051;-90
2021/03/13 09:49:59;;;;;;;21.50;3.53;;;8.20;99.90;;;;;;5047200;28;20139;-88
2021/03/13 09:52:27;;;;;;;23.58;5.35;;;8.30;99.90;;;;;;5083914;28;20540;-90
2021/03/13 09:55:07;;;;;;;22.55;5.55;;;8.20;99.90;;;;;;5079160;28;20176;-89
2021/03/13 09:57:34;;;;;;;24.35;4.47;;;8.10;99.90;;;;;;5071765;28;20052;-90
2021/03/13 10:00:00;;;;;;;24.40;4.97;;;8.20;99.90;;;;;;5060027;28;20032;-90
2021/03/13 10:02:27;;;;;;;22.38;4.97;;;8.10;99.90;;;;;;5055505;28;20044;-89
2021/03/13 10:04:53;;;;;;;21.00;4.03;;;8.20;99.90;;;;;;5051541;28;20145;-90
2021/03/13 10:07:20;;;;;;;23.52;4.72;;;8.00;99.90;;;;;;5062179;28;20044;-90
2021/03/13 10:09:54;;;;;;;27.73;4.20;;;8.00;99.90;;;;;;5064772;28;20067;-90
2021/03/13 10:12:54;;;;;;;20.38;4.07;;;7.90;99.90;;;;;;5059473;28;20090;-91
2021/03/13 10:15:32;;;;;;;24.23;5.60;;;7.90;99.90;;;;;;5007683;28;20040;-90
2021/03/13 10:18:13;;;;;;;21.38;4.93;;;7.70;99.90;;;;;;5052725;28;20448;-91
2021/03/13 10:20:48;;;;;;;27.15;5.75;;;7.60;99.90;;;;;;5058014;28;20036;-91
2021/03/13 10:23:14;;;;;;;17.70;4.68;;;7.60;99.90;;;;;;5072800;28;20059;-90
2021/03/13 10:25:42;;;;;;;21.30;4.75;;;7.50;99.90;;;;;;5078332;28;20100;-90
2021/03/13 10:28:09;;;;;;;25.60;4.30;;;7.60;99.90;;;;;;5066002;28;20028;-91
2021/03/13 10:30:37;;;;;;;29.45;5.65;;;7.60;99.90;;;;;;5054267;28;20521;-90
2021/03/13 10:33:03;;;;;;;23.25;4.05;;;7.70;99.90;;;;;;5048095;28;20413;-90
2021/03/13 10:35:31;;;;;;;33.22;5.18;;;8.10;99.90;;;;;;5073028;28;20028;-90
2021/03/13 10:38:21;;;;;;;25.52;5.35;;;8.80;99.90;;;;;;5084208;28;20039;-92
2021/03/13 10:40:55;;;;;;;18.50;4.60;;;9.40;99.90;;;;;;5065244;28;20048;-90
2021/03/13 10:43:25;;;;;;;27.70;5.40;;;8.80;99.90;;;;;;5049379;28;20044;-91
2021/03/13 10:45:57;;;;;;;20.63;4.57;;;8.20;99.90;;;;;;5063853;28;20041;-91
2021/03/13 10:48:24;;;;;;;23.08;4.13;;;7.80;99.90;;;;;;5077842;28;20045;-90
2021/03/13 10:50:51;;;;;;;14.45;3.17;;;7.80;99.90;;;;;;5048142;28;20501;-90
2021/03/13 10:53:31;;;;;;;20.02;3.65;;;7.60;99.90;;;;;;5054970;28;20050;-90
2021/03/13 10:55:59;;;;;;;17.33;3.50;;;7.70;99.90;;;;;;5045206;28;20048;-88
2021/03/13 10:58:32;;;;;;;26.23;5.07;;;7.70;99.90;;;;;;5063591;28;20058;-89
2021/03/13 11:01:01;;;;;;;17.63;3.53;;;7.40;99.90;;;;;;5065997;28;20134;-91
2021/03/13 11:03:27;;;;;;;29.90;6.18;;;7.40;99.90;;;;;;5050341;28;20041;-92
2021/03/13 11:05:54;;;;;;;23.33;4.70;;;7.20;99.90;;;;;;5047468;28;20527;-91
2021/03/13 11:08:21;;;;;;;26.27;4.88;;;7.30;99.90;;;;;;5046068;28;20056;-90
2021/03/13 11:10:48;;;;;;;21.58;4.85;;;7.50;99.90;;;;;;5049181;28;20481;-90
2021/03/13 11:13:14;;;;;;;23.02;5.00;;;7.60;99.90;;;;;;5079132;28;20043;-90
2021/03/13 11:15:40;;;;;;;23.67;4.90;;;7.60;99.90;;;;;;5084247;28;20078;-91
2021/03/13 11:18:07;;;;;;;23.42;4.88;;;7.50;99.90;;;;;;5072522;28;20044;-89
2021/03/13 11:20:34;;;;;;;26.52;4.25;;;7.00;99.90;;;;;;5064347;28;20396;-91
2021/03/13 11:23:00;;;;;;;18.45;4.20;;;7.40;99.90;;;;;;5083315;28;20046;-90
2021/03/13 11:25:26;;;;;;;22.00;4.45;;;7.30;99.90;;;;;;5085278;28;20122;-90
2021/03/13 11:27:52;;;;;;;23.17;4.88;;;7.40;99.90;;;;;;5081971;28;20202;-90
2021/03/13 11:30:18;;;;;;;22.23;4.47;;;7.70;99.90;;;;;;5080094;28;20031;-90
2021/03/13 11:32:44;;;;;;;21.92;4.60;;;7.80;99.90;;;;;;5078668;28;20036;-90
2021/03/13 11:35:11;;;;;;;24.02;5.60;;;7.70;99.90;;;;;;5086044;28;20495;-89
2021/03/13 11:37:37;;;;;;;27.52;9.25;;;7.60;99.90;;;;;;5082187;28;20043;-90
2021/03/13 11:40:05;;;;;;;17.83;3.63;;;8.10;99.90;;;;;;5084410;28;20046;-90
2021/03/13 11:42:31;;;;;;;19.38;4.10;;;8.40;99.90;;;;;;5076740;28;20040;-88
2021/03/13 11:44:58;;;;;;;23.42;3.58;;;8.70;99.90;;;;;;5086517;28;20061;-89
2021/03/13 11:47:25;;;;;;;20.00;4.47;;;8.90;99.90;;;;;;5099249;28;20042;-90
2021/03/13 11:49:52;;;;;;;23.75;4.28;;;9.20;99.90;;;;;;5080124;28;20143;-91
2021/03/13 11:52:18;;;;;;;23.30;3.63;;;9.00;99.90;;;;;;5083629;28;20035;-91
2021/03/13 11:54:49;;;;;;;19.17;3.15;;;8.70;99.90;;;;;;5080339;28;20119;-91
2021/03/13 11:57:16;;;;;;;20.60;4.03;;;8.50;99.90;;;;;;5088974;28;20114;-91
2021/03/13 11:59:45;;;;;;;19.92;3.95;;;8.20;99.90;;;;;;5073683;28;20051;-88
2021/03/13 12:02:12;;;;;;;13.32;3.92;;;8.00;99.90;;;;;;5087325;28;20484;-89
2021/03/13 12:04:38;;;;;;;21.98;4.25;;;8.00;99.90;;;;;;5087126;28;20503;-90
2021/03/13 12:07:04;;;;;;;19.75;3.60;;;7.90;99.90;;;;;;5068523;28;20036;-89
2021/03/13 12:09:30;;;;;;;15.82;3.35;;;8.20;99.90;;;;;;5082196;28;20061;-89
2021/03/13 12:11:56;;;;;;;19.83;3.97;;;8.20;99.90;;;;;;5107386;28;20047;-91
2021/03/13 12:14:21;;;;;;;17.02;3.45;;;8.10;99.90;;;;;;5089417;28;20043;-88
2021/03/13 12:16:47;;;;;;;16.85;2.95;;;8.10;99.90;;;;;;5088978;28;20130;-88
2021/03/13 12:19:13;;;;;;;19.33;3.17;;;8.00;99.90;;;;;;5079728;28;20363;-88
2021/03/13 12:21:40;;;;;;;15.38;3.20;;;7.90;99.90;;;;;;5085907;28;20043;-89
2021/03/13 12:24:07;;;;;;;20.40;4.80;;;7.80;99.90;;;;;;5080270;28;20493;-91
2021/03/13 12:26:33;;;;;;;22.88;4.82;;;8.50;99.90;;;;;;5072638;28;20043;-88
2021/03/13 12:28:59;;;;;;;17.77;3.05;;;8.70;99.90;;;;;;5090895;28;20035;-89
2021/03/13 12:31:25;;;;;;;15.48;3.13;;;8.90;99.90;;;;;;5079793;28;20054;-89
2021/03/13 12:33:51;;;;;;;16.88;2.97;;;8.50;99.90;;;;;;5068504;28;20145;-91
2021/03/13 12:36:16;;;;;;;16.45;3.67;;;8.30;99.90;;;;;;5102367;28;20046;-88
2021/03/13 12:38:42;;;;;;;14.45;3.22;;;7.80;99.90;;;;;;5082920;28;20098;-91
2021/03/13 12:41:08;;;;;;;19.17;4.05;;;7.30;99.90;;;;;;5082817;28;20085;-89
2021/03/13 12:43:34;;;;;;;21.98;3.28;;;7.20;99.90;;;;;;5087024;28;20069;-90
2021/03/13 12:46:00;;;;;;;16.67;3.13;;;7.30;99.90;;;;;;5068217;28;20072;-90
2021/03/13 12:48:27;;;;;;;17.48;3.13;;;7.40;99.90;;;;;;5087618;28;20027;-90
2021/03/13 12:50:53;;;;;;;20.13;3.85;;;7.30;99.90;;;;;;5085581;28;20460;-90
2021/03/13 12:53:19;;;;;;;23.17;4.47;;;7.50;99.90;;;;;;5087148;28;20439;-90
2021/03/13 12:55:45;;;;;;;26.20;6.22;;;7.50;99.90;;;;;;5068628;28;20047;-90
2021/03/13 12:58:11;;;;;;;27.88;4.25;;;7.60;99.90;;;;;;5070983;28;20040;-90
2021/03/13 13:00:40;;;;;;;23.98;4.72;;;7.70;99.90;;;;;;5088573;28;20047;-89
2021/03/13 13:03:07;;;;;;;19.40;3.83;;;7.60;99.90;;;;;;5089308;28;20032;-91
2021/03/13 13:05:32;;;;;;;21.77;4.00;;;7.40;99.90;;;;;;5098769;28;20032;-90
2021/03/13 13:07:58;;;;;;;23.73;3.45;;;7.30;99.90;;;;;;5091323;28;20043;-89
2021/03/13 13:10:24;;;;;;;22.85;3.85;;;7.30;99.90;;;;;;5105153;28;20095;-89
2021/03/13 13:12:49;;;;;;;23.63;2.90;;;7.40;99.90;;;;;;5087731;28;20055;-91
2021/03/13 13:15:15;;;;;;;20.70;4.93;;;7.50;99.90;;;;;;5087181;28;20130;-92
2021/03/13 13:17:41;;;;;;;17.15;3.58;;;7.20;99.90;;;;;;5106167;28;20027;-91
2021/03/13 13:20:13;;;;;;;19.02;5.00;;;7.20;99.90;;;;;;5087899;28;20389;-88
2021/03/13 13:22:42;;;;;;;14.82;3.55;;;7.20;99.90;;;;;;5087807;28;20040;-90
2021/03/13 13:25:09;;;;;;;22.15;6.35;;;7.20;99.90;;;;;;5086577;28;20059;-89
2021/03/13 13:27:35;;;;;;;20.55;4.13;;;7.10;99.90;;;;;;5088014;28;20047;-90
2021/03/13 13:30:01;;;;;;;18.02;3.55;;;7.10;99.90;;;;;;5088548;28;20031;-91
2021/03/13 13:32:27;;;;;;;16.52;4.45;;;7.10;99.90;;;;;;5087649;28;20126;-90
2021/03/13 13:34:53;;;;;;;22.27;4.93;;;7.00;99.90;;;;;;5087530;28;20511;-90
2021/03/13 13:37:19;;;;;;;23.52;3.88;;;7.00;99.90;;;;;;5087074;28;20051;-91
2021/03/13 13:39:46;;;;;;;16.88;3.72;;;6.90;99.90;;;;;;5106514;28;20496;-91
2021/03/13 13:42:12;;;;;;;21.55;4.82;;;6.90;99.90;;;;;;5106704;28;20067;-90
2021/03/13 13:44:38;;;;;;;20.05;3.85;;;7.00;99.90;;;;;;5087275;28;20040;-89
2021/03/13 13:47:04;;;;;;;15.35;3.20;;;6.90;99.90;;;;;;5088130;28;20039;-90
2021/03/13 13:49:30;;;;;;;20.40;2.83;;;6.90;99.90;;;;;;5087291;28;20046;-90
2021/03/13 13:51:56;;;;;;;14.40;2.50;;;6.90;99.90;;;;;;5087018;28;20027;-89
2021/03/13 13:54:22;;;;;;;13.77;2.55;;;6.90;99.90;;;;;;5086345;28;20031;-88
2021/03/13 13:56:47;;;;;;;17.17;2.97;;;6.80;99.90;;;;;;5087330;28;20055;-91
2021/03/13 13:59:13;;;;;;;17.65;2.67;;;6.80;99.90;;;;;;5086120;28;20058;-89
2021/03/13 14:01:38;;;;;;;13.25;2.20;;;6.70;99.90;;;;;;5086367;28;20050;-90
2021/03/13 14:04:04;;;;;;;12.88;2.08;;;6.60;99.90;;;;;;5085867;28;20387;-90
2021/03/13 14:06:30;;;;;;;13.23;2.00;;;6.20;99.90;;;;;;5087387;28;20044;-89
2021/03/13 14:08:55;;;;;;;15.27;2.25;;;5.90;99.90;;;;;;5085051;28;20043;-90
2021/03/13 14:11:21;;;;;;;12.65;2.05;;;5.90;99.90;;;;;;5088051;28;20116;-91
2021/03/13 14:13:47;;;;;;;16.30;1.95;;;5.80;99.90;;;;;;5092809;28;20122;-89
2021/03/13 14:16:13;;;;;;;15.93;2.83;;;5.80;99.90;;;;;;5085838;28;20059;-90
2021/03/13 14:18:39;;;;;;;14.98;3.33;;;5.80;99.90;;;;;;5091052;28;20094;-89
2021/03/13 14:21:06;;;;;;;10.90;1.95;;;5.80;99.90;;;;;;5084802;28;20508;-88
2021/03/13 14:23:32;;;;;;;17.73;5.50;;;5.80;99.90;;;;;;5097527;28;20859;-90
2021/03/13 14:25:58;;;;;;;11.90;2.10;;;5.80;99.90;;;;;;5103419;28;20202;-90
2021/03/13 14:28:23;;;;;;;14.30;2.50;;;5.80;99.90;;;;;;5094179;28;20042;-90
2021/03/13 14:30:49;;;;;;;14.43;2.22;;;5.90;99.90;;;;;;5086579;28;20122;-90
2021/03/13 14:33:15;;;;;;;13.07;1.83;;;5.70;99.90;;;;;;5101440;28;20046;-89
2021/03/13 14:35:41;;;;;;;9.05;1.50;;;5.80;99.90;;;;;;5103960;28;20074;-89
2021/03/13 14:38:06;;;;;;;11.90;1.70;;;5.80;99.90;;;;;;5086909;28;20044;-88
2021/03/13 14:40:32;;;;;;;18.02;2.55;;;5.90;99.90;;;;;;5102939;28;20062;-90
2021/03/13 14:42:59;;;;;;;18.15;2.50;;;5.90;99.90;;;;;;5086477;28;20073;-89
2021/03/13 14:45:25;;;;;;;21.52;1.98;;;6.00;99.90;;;;;;5085570;28;20035;-90
2021/03/13 14:47:52;;;;;;;22.33;2.90;;;6.10;99.90;;;;;;5096481;28;20104;-90
2021/03/13 14:50:18;;;;;;;20.80;3.60;;;6.20;99.90;;;;;;5102740;28;20080;-89
2021/03/13 14:52:45;;;;;;;30.48;3.42;;;6.30;99.90;;;;;;5092973;28;20469;-89
2021/03/13 14:55:13;;;;;;;25.45;3.50;;;6.30;99.90;;;;;;5083553;28;20126;-89
2021/03/13 14:57:39;;;;;;;25.48;4.20;;;6.40;99.90;;;;;;5098058;28;20040;-90
2021/03/13 15:00:17;;;;;;;21.67;4.38;;;6.40;99.90;;;;;;5102429;28;20047;-90
2021/03/13 15:02:43;;;;;;;22.08;2.88;;;6.50;99.90;;;;;;5089069;28;20075;-90
2021/03/13 15:05:09;;;;;;;18.17;2.92;;;6.60;99.90;;;;;;5085037;28;20063;-90
2021/03/13 15:07:36;;;;;;;26.55;5.45;;;6.60;99.90;;;;;;5103134;28;20551;-89
2021/03/13 15:10:06;;;;;;;20.40;5.15;;;6.60;99.90;;;;;;5100771;28;20035;-89
2021/03/13 15:12:31;;;;;;;19.63;3.50;;;6.60;99.90;;;;;;5103893;28;20042;-90
2021/03/13 15:14:58;;;;;;;16.75;3.15;;;6.60;99.90;;;;;;5084676;28;20035;-89
2021/03/13 15:17:23;;;;;;;18.45;3.28;;;6.60;99.90;;;;;;5084841;28;20396;-89
2021/03/13 15:19:49;;;;;;;19.85;3.03;;;6.60;99.90;;;;;;5086122;28;20043;-91
2021/03/13 15:22:16;;;;;;;12.25;3.38;;;6.50;99.90;;;;;;5084967;28;20392;-89
2021/03/13 15:24:42;;;;;;;11.65;2.15;;;6.60;99.90;;;;;;5083884;28;20043;-89
2021/03/13 15:27:08;;;;;;;13.45;2.47;;;6.60;99.90;;;;;;5069519;28;20055;-88
2021/03/13 15:29:34;;;;;;;18.33;3.33;;;6.60;99.90;;;;;;5088192;28;20036;-90
2021/03/13 15:32:00;;;;;;;16.40;3.08;;;6.60;99.90;;;;;;5106099;28;20122;-89
2021/03/13 15:34:25;;;;;;;14.48;3.50;;;6.60;99.90;;;;;;5091669;28;20083;-90
2021/03/13 15:36:51;;;;;;;15.60;3.10;;;6.50;99.90;;;;;;5092086;28;20032;-91
2021/03/13 15:39:17;;;;;;;17.60;2.67;;;6.60;99.90;;;;;;5090617;28;20072;-89
2021/03/13 15:41:42;;;;;;;13.88;2.45;;;6.60;99.90;;;;;;5089049;28;20430;-90
2021/03/13 15:44:13;;;;;;;14.57;2.47;;;6.70;99.90;;;;;;5107851;28;20042;-89
2021/03/13 15:46:39;;;;;;;17.33;3.45;;;6.70;99.90;;;;;;5098337;28;20039;-90
2021/03/13 15:49:07;;;;;;;24.30;3.67;;;6.60;99.90;;;;;;5083379;28;20047;-90
2021/03/13 15:51:33;;;;;;;10.90;2.47;;;6.70;99.90;;;;;;5091623;28;20038;-89
2021/03/13 15:53:59;;;;;;;21.85;3.63;;;6.70;99.90;;;;;;5090405;28;20416;-89
2021/03/13 15:56:25;;;;;;;18.00;2.60;;;6.60;99.90;;;;;;5089069;28;20039;-90
2021/03/13 15:58:52;;;;;;;23.73;4.50;;;6.70;99.90;;;;;;5091056;28;20432;-90
2021/03/13 16:01:17;;;;;;;18.33;2.65;;;6.70;99.90;;;;;;5107836;28;20043;-91
2021/03/13 16:03:43;;;;;;;23.20;2.97;;;6.80;99.90;;;;;;5088538;28;20040;-90
2021/03/13 16:06:09;;;;;;;18.77;3.72;;;6.80;99.90;;;;;;5107217;28;20063;-89
2021/03/13 16:08:34;;;;;;;15.88;3.33;;;6.70;99.90;;;;;;5088412;28;20123;-89
2021/03/13 16:11:05;;;;;;;20.90;4.57;;;6.70;99.90;;;;;;5087910;28;20058;-89
2021/03/13 16:13:31;;;;;;;19.77;3.38;;;6.80;99.90;;;;;;5107452;28;20036;-90
2021/03/13 16:15:57;;;;;;;23.58;3.60;;;6.90;99.90;;;;;;5110307;28;20093;-90
2021/03/13 16:18:23;;;;;;;13.85;3.00;;;6.80;99.90;;;;;;5092163;28;20070;-88
2021/03/13 16:20:49;;;;;;;19.25;3.15;;;6.80;99.90;;;;;;5074879;28;20051;-90
2021/03/13 16:23:15;;;;;;;23.05;4.63;;;6.80;99.90;;;;;;5109337;28;20055;-90
2021/03/13 16:25:42;;;;;;;28.58;3.72;;;6.80;99.90;;;;;;5105664;28;20398;-89
2021/03/13 16:28:08;;;;;;;14.73;3.28;;;6.80;99.90;;;;;;5105986;28;20396;-90
2021/03/13 16:30:33;;;;;;;23.35;4.18;;;6.80;99.90;;;;;;5089093;28;20123;-91
2021/03/13 16:32:59;;;;;;;26.20;4.95;;;6.90;99.90;;;;;;5088648;28;20100;-90
2021/03/13 16:35:25;;;;;;;22.58;4.28;;;6.80;99.90;;;;;;5088268;28;20062;-91
2021/03/13 16:37:53;;;;;;;27.48;4.05;;;6.80;99.90;;;;;;5087874;28;20114;-90
2021/03/13 16:40:20;;;;;;;25.75;3.72;;;6.80;99.90;;;;;;5087726;28;20047;-90
2021/03/13 16:42:46;;;;;;;23.35;4.25;;;6.80;99.90;;;;;;5087710;28;20124;-90
2021/03/13 16:45:12;;;;;;;30.55;4.10;;;6.70;99.90;;;;;;5071218;28;20071;-90
2021/03/13 16:47:40;;;;;;;16.95;3.25;;;6.70;99.90;;;;;;5087982;28;20036;-90
2021/03/13 16:50:07;;;;;;;23.55;3.53;;;6.80;99.90;;;;;;5087314;28;20449;-89
2021/03/13 16:52:33;;;;;;;25.02;5.15;;;6.80;99.90;;;;;;5106459;28;20140;-89
2021/03/13 16:54:59;;;;;;;24.02;4.28;;;6.80;99.90;;;;;;5086741;28;20134;-89
2021/03/13 16:57:24;;;;;;;28.52;4.68;;;6.80;99.90;;;;;;5088149;28;20039;-88
2021/03/13 16:59:50;;;;;;;19.40;3.05;;;6.80;99.90;;;;;;5088771;28;20035;-90
2021/03/13 17:02:18;;;;;;;23.30;3.75;;;6.70;99.90;;;;;;5087585;28;20032;-90
2021/03/13 17:04:44;;;;;;;27.30;5.00;;;6.70;99.90;;;;;;5107653;28;20082;-90
2021/03/13 17:07:10;;;;;;;22.98;3.22;;;6.70;99.90;;;;;;5108919;28;20034;-90
2021/03/13 17:09:36;;;;;;;25.67;5.30;;;6.60;99.90;;;;;;5097381;28;20147;-89
2021/03/13 17:12:02;;;;;;;27.05;4.20;;;6.60;99.90;;;;;;5072839;28;20256;-90
2021/03/13 17:14:27;;;;;;;26.38;3.72;;;6.60;99.90;;;;;;5071132;28;20058;-90
2021/03/13 17:16:53;;;;;;;27.90;3.97;;;6.60;99.90;;;;;;5105741;28;20048;-88
2021/03/13 17:19:19;;;;;;;28.00;4.15;;;6.60;99.90;;;;;;5087257;28;20480;-91
2021/03/13 17:21:45;;;;;;;26.17;4.18;;;6.60;99.90;;;;;;5087256;28;20042;-89
2021/03/13 17:24:11;;;;;;;28.25;4.68;;;6.60;99.90;;;;;;5086264;28;20050;-87
2021/03/13 17:26:37;;;;;;;21.77;4.43;;;6.60;99.90;;;;;;5087311;28;20044;-91
2021/03/13 17:29:03;;;;;;;22.75;4.40;;;6.60;99.90;;;;;;5105635;28;20347;-87
2021/03/13 17:31:28;;;;;;;24.58;3.83;;;6.60;99.90;;;;;;5088269;28;20519;-89
2021/03/13 17:33:54;;;;;;;20.50;4.18;;;6.60;99.90;;;;;;5086844;28;20449;-90
2021/03/13 17:36:22;;;;;;;28.67;5.97;;;6.60;99.90;;;;;;5088561;28;20537;-90
2021/03/13 17:38:49;;;;;;;18.58;3.67;;;6.60;99.90;;;;;;5084727;28;20040;-91
2021/03/13 17:41:14;;;;;;;23.70;3.70;;;6.60;99.90;;;;;;5070023;28;20124;-89
2021/03/13 17:43:40;;;;;;;47.08;19.15;;;6.60;99.90;;;;;;5106386;28;20044;-91
2021/03/13 17:46:06;;;;;;;20.27;4.03;;;6.60;99.90;;;;;;5088876;28;20119;-92
2021/03/13 17:48:32;;;;;;;23.85;5.60;;;6.60;99.90;;;;;;5087283;28;20515;-90
2021/03/13 17:50:58;;;;;;;17.00;3.75;;;6.50;99.90;;;;;;5066386;27;20075;-91
2021/03/13 17:53:24;;;;;;;24.45;3.65;;;6.60;99.90;;;;;;5084820;27;20471;-92
2021/03/13 17:55:49;;;;;;;27.55;4.22;;;6.50;99.90;;;;;;5088007;28;20040;-92
2021/03/13 17:58:15;;;;;;;31.65;5.25;;;6.50;99.90;;;;;;5081526;27;20469;-91
2021/03/13 18:00:42;;;;;;;29.30;4.72;;;6.40;99.90;;;;;;5090897;28;20039;-90
2021/03/13 18:03:08;;;;;;;30.58;4.80;;;6.40;99.90;;;;;;5086347;28;20311;-90
2021/03/13 18:05:36;;;;;;;34.28;4.93;;;6.30;99.90;;;;;;5080869;28;20390;-92
2021/03/13 18:08:02;;;;;;;28.17;4.72;;;6.30;99.90;;;;;;5100420;28;20050;-88
2021/03/13 18:10:28;;;;;;;30.73;4.07;;;6.30;99.90;;;;;;5078853;28;20036;-89
2021/03/13 18:12:54;;;;;;;27.90;4.28;;;6.30;99.90;;;;;;5085781;27;20056;-88
2021/03/13 18:15:19;;;;;;;24.52;3.60;;;6.20;99.90;;;;;;5107488;27;20061;-90
2021/03/13 18:17:45;;;;;;;21.48;3.80;;;6.20;99.90;;;;;;5087843;28;20046;-89
2021/03/13 18:20:11;;;;;;;33.08;5.15;;;6.20;99.90;;;;;;5102794;28;20526;-91
2021/03/13 18:22:37;;;;;;;35.05;4.80;;;6.20;99.90;;;;;;5079149;28;20105;-91
2021/03/13 18:25:07;;;;;;;27.15;5.20;;;6.30;99.90;;;;;;5074843;28;20046;-90
2021/03/13 18:27:33;;;;;;;31.23;5.38;;;6.40;99.90;;;;;;5094037;28;20337;-88
2021/03/13 18:29:58;;;;;;;20.50;3.47;;;6.40;99.90;;;;;;5077366;28;20150;-90
2021/03/13 18:32:24;;;;;;;20.17;4.57;;;6.40;99.90;;;;;;5114208;28;20040;-91
2021/03/13 18:34:50;;;;;;;16.77;3.05;;;6.50;99.90;;;;;;5096567;28;20040;-89
2021/03/13 18:37:15;;;;;;;24.38;4.55;;;6.40;99.90;;;;;;5112026;28;20039;-91
2021/03/13 18:39:41;;;;;;;24.00;4.82;;;6.40;99.90;;;;;;5092574;28;20575;-90
2021/03/13 18:42:07;;;;;;;21.67;3.80;;;6.40;99.90;;;;;;5090131;28;20047;-89
2021/03/13 18:44:33;;;;;;;19.92;3.92;;;6.40;99.90;;;;;;5078199;28;20511;-91
2021/03/13 18:46:58;;;;;;;22.23;3.22;;;6.40;99.90;;;;;;5097211;28;20043;-91
2021/03/13 18:49:24;;;;;;;13.98;2.42;;;6.40;99.90;;;;;;5085757;28;20051;-91
2021/03/13 18:51:50;;;;;;;12.27;2.25;;;6.50;99.90;;;;;;5102795;28;20035;-91
2021/03/13 18:54:16;;;;;;;12.18;2.30;;;6.50;99.90;;;;;;5101750;28;20093;-91
2021/03/13 18:56:41;;;;;;;16.45;2.45;;;6.50;99.90;;;;;;5084989;28;20126;-90
2021/03/13 18:59:07;;;;;;;15.02;2.33;;;6.60;99.90;;;;;;5084418;28;20078;-90
2021/03/13 19:01:33;;;;;;;23.60;3.67;;;6.60;99.90;;;;;;5084449;28;20055;-90
2021/03/13 19:03:59;;;;;;;23.65;3.85;;;6.50;99.90;;;;;;5085852;28;20347;-90
2021/03/13 19:06:24;;;;;;;17.77;3.20;;;6.50;99.90;;;;;;5101504;28;20089;-89
2021/03/13 19:08:50;;;;;;;21.05;3.70;;;6.50;99.90;;;;;;5084815;28;20039;-91
2021/03/13 19:11:17;;;;;;;17.08;3.80;;;6.50;99.90;;;;;;5086984;28;20140;-90
2021/03/13 19:13:43;;;;;;;22.33;4.45;;;6.50;99.90;;;;;;5086228;28;20124;-92
2021/03/13 19:16:09;;;;;;;26.33;3.20;;;6.50;99.90;;;;;;5084821;28;20122;-91
2021/03/13 19:18:34;;;;;;;39.38;4.32;;;6.60;99.90;;;;;;5085642;28;20477;-91
2021/03/13 19:21:00;;;;;;;27.90;4.65;;;6.50;99.90;;;;;;5085953;28;20422;-92
2021/03/13 19:23:26;;;;;;;21.35;4.22;;;6.50;99.90;;;;;;5084485;28;20061;-92
2021/03/13 19:25:52;;;;;;;32.50;4.15;;;6.50;99.90;;;;;;5085799;28;20168;-91
2021/03/13 19:28:18;;;;;;;26.65;4.15;;;6.50;99.90;;;;;;5085690;28;20039;-92
2021/03/13 19:30:44;;;;;;;24.38;3.78;;;6.50;99.90;;;;;;5085898;28;20446;-90
2021/03/13 19:33:09;;;;;;;19.42;3.67;;;6.50;99.90;;;;;;5085342;28;20036;-91
2021/03/13 19:35:39;;;;;;;27.77;3.25;;;6.50;99.90;;;;;;5085936;28;20040;-90
2021/03/13 19:38:09;;;;;;;23.83;3.50;;;6.60;99.90;;;;;;5086816;28;20039;-90
2021/03/13 19:40:37;;;;;;;27.05;4.63;;;6.60;99.90;;;;;;5086813;28;20044;-89
2021/03/13 19:43:02;;;;;;;24.98;4.22;;;6.60;99.90;;;;;;5086972;28;20067;-90
2021/03/13 19:45:28;;;;;;;25.98;3.90;;;6.60;99.90;;;;;;5097289;28;20028;-90
2021/03/13 19:47:56;;;;;;;21.58;3.45;;;6.60;99.90;;;;;;5085842;28;20087;-91
2021/03/13 19:50:22;;;;;;;18.20;3.10;;;6.60;99.90;;;;;;5086197;28;20355;-92
2021/03/13 19:52:48;;;;;;;29.23;4.10;;;6.60;99.90;;;;;;5070937;28;20075;-91
2021/03/13 19:55:14;;;;;;;24.60;3.70;;;6.60;99.90;;;;;;5085019;28;20473;-92
2021/03/13 19:57:40;;;;;;;33.83;4.65;;;6.60;99.90;;;;;;5068659;28;20039;-92
2021/03/13 20:00:06;;;;;;;21.88;3.65;;;6.60;99.90;;;;;;5068151;28;20050;-92
2021/03/13 20:02:32;;;;;;;15.52;2.60;;;6.60;99.90;;;;;;5104422;28;20130;-91